sensor_id;sensor_type;location;lat;lon;timestamp;P1;durP1;ratioP1;P2;durP2;ratioP2
5650;SDS011;40241;52.684;9.758;2023-04-25T00:00:17;4.23;;;2.50;;
5650;SDS011;40241;52.684;9.758;2023-04-25T00:02:43;3.93;;;2.20;;
5650;SDS011;40241;52.684;9.758;2023-04-25T00:05:08;10.27;;;2.80;;
5650;SDS011;40241;52.684;9.758;2023-04-25T00:07:34;3.10;;;2.27;;
5650;SDS011;40241;52.684;9.758;2023-04-25T00:09:59;2.87;;;1.90;;
5650;SDS011;40241;52.684;9.758;2023-04-25T00:12:25;3.50;;;2.17;;
5650;SDS011;40241;52.684;9.758;2023-04-25T00:14:53;5.97;;;2.60;;
5650;SDS011;40241;52.684;9.758;2023-04-25T00:17:18;5.80;;;2.30;;
5650;SDS011;40241;52.684;9.758;2023-04-25T00:19:44;4.83;;;2.37;;
5650;SDS011;40241;52.684;9.758;2023-04-25T00:22:11;4.57;;;2.70;;
5650;SDS011;40241;52.684;9.758;2023-04-25T00:24:37;8.33;;;3.20;;
5650;SDS011;40241;52.684;9.758;2023-04-25T00:27:02;3.90;;;2.43;;
5650;SDS011;40241;52.684;9.758;2023-04-25T00:29:28;6.80;;;2.87;;
5650;SDS011;40241;52.684;9.758;2023-04-25T00:31:53;4.20;;;2.53;;
5650;SDS011;40241;52.684;9.758;2023-04-25T00:34:18;2.40;;;2.20;;
5650;SDS011;40241;52.684;9.758;2023-04-25T00:36:44;5.50;;;2.83;;
5650;SDS011;40241;52.684;9.758;2023-04-25T00:39:09;6.20;;;2.83;;
5650;SDS011;40241;52.684;9.758;2023-04-25T00:41:35;4.03;;;2.37;;
5650;SDS011;40241;52.684;9.758;2023-04-25T00:44:00;4.73;;;2.20;;
5650;SDS011;40241;52.684;9.758;2023-04-25T00:46:27;5.83;;;2.90;;
5650;SDS011;40241;52.684;9.758;2023-04-25T00:48:53;7.80;;;2.97;;
5650;SDS011;40241;52.684;9.758;2023-04-25T00:51:20;6.77;;;3.00;;
5650;SDS011;40241;52.684;9.758;2023-04-25T00:53:47;3.03;;;2.40;;
5650;SDS011;40241;52.684;9.758;2023-04-25T00:56:14;3.70;;;2.87;;
5650;SDS011;40241;52.684;9.758;2023-04-25T00:58:41;9.80;;;3.90;;
5650;SDS011;40241;52.684;9.758;2023-04-25T01:01:07;3.00;;;2.70;;
5650;SDS011;40241;52.684;9.758;2023-04-25T01:03:33;5.60;;;2.90;;
5650;SDS011;40241;52.684;9.758;2023-04-25T01:06:00;5.50;;;2.90;;
5650;SDS011;40241;52.684;9.758;2023-04-25T01:08:27;3.33;;;2.53;;
5650;SDS011;40241;52.684;9.758;2023-04-25T01:10:52;3.77;;;2.80;;
5650;SDS011;40241;52.684;9.758;2023-04-25T01:13:18;10.83;;;3.90;;
5650;SDS011;40241;52.684;9.758;2023-04-25T01:15:43;6.57;;;3.00;;
5650;SDS011;40241;52.684;9.758;2023-04-25T01:18:09;6.13;;;2.87;;
5650;SDS011;40241;52.684;9.758;2023-04-25T01:20:34;3.47;;;3.00;;
5650;SDS011;40241;52.684;9.758;2023-04-25T01:23:03;5.60;;;2.57;;
5650;SDS011;40241;52.684;9.758;2023-04-25T01:25:29;3.77;;;3.10;;
5650;SDS011;40241;52.684;9.758;2023-04-25T01:27:55;4.37;;;3.03;;
5650;SDS011;40241;52.684;9.758;2023-04-25T01:30:22;3.80;;;2.70;;
5650;SDS011;40241;52.684;9.758;2023-04-25T01:32:49;10.00;;;3.33;;
5650;SDS011;40241;52.684;9.758;2023-04-25T01:35:14;4.93;;;3.07;;
5650;SDS011;40241;52.684;9.758;2023-04-25T01:37:40;6.37;;;3.40;;
5650;SDS011;40241;52.684;9.758;2023-04-25T01:40:07;4.80;;;3.27;;
5650;SDS011;40241;52.684;9.758;2023-04-25T01:42:34;7.33;;;2.93;;
5650;SDS011;40241;52.684;9.758;2023-04-25T01:45:01;7.60;;;3.43;;
5650;SDS011;40241;52.684;9.758;2023-04-25T01:47:27;9.07;;;3.30;;
5650;SDS011;40241;52.684;9.758;2023-04-25T01:49:52;5.07;;;3.07;;
5650;SDS011;40241;52.684;9.758;2023-04-25T01:52:18;5.93;;;3.40;;
5650;SDS011;40241;52.684;9.758;2023-04-25T01:54:43;6.10;;;3.00;;
5650;SDS011;40241;52.684;9.758;2023-04-25T01:57:10;4.50;;;2.47;;
5650;SDS011;40241;52.684;9.758;2023-04-25T01:59:36;6.40;;;2.63;;
5650;SDS011;40241;52.684;9.758;2023-04-25T02:02:02;4.53;;;2.20;;
5650;SDS011;40241;52.684;9.758;2023-04-25T02:04:30;3.10;;;2.10;;
5650;SDS011;40241;52.684;9.758;2023-04-25T02:06:56;7.03;;;2.67;;
5650;SDS011;40241;52.684;9.758;2023-04-25T02:09:21;7.63;;;2.77;;
5650;SDS011;40241;52.684;9.758;2023-04-25T02:11:47;4.13;;;1.70;;
5650;SDS011;40241;52.684;9.758;2023-04-25T02:14:12;3.93;;;2.33;;
5650;SDS011;40241;52.684;9.758;2023-04-25T02:16:38;9.07;;;2.30;;
5650;SDS011;40241;52.684;9.758;2023-04-25T02:19:04;6.40;;;1.60;;
5650;SDS011;40241;52.684;9.758;2023-04-25T02:21:30;6.30;;;1.83;;
5650;SDS011;40241;52.684;9.758;2023-04-25T02:23:56;5.60;;;2.03;;
5650;SDS011;40241;52.684;9.758;2023-04-25T02:26:21;4.80;;;2.10;;
5650;SDS011;40241;52.684;9.758;2023-04-25T02:28:48;6.50;;;2.13;;
5650;SDS011;40241;52.684;9.758;2023-04-25T02:31:14;5.77;;;1.90;;
5650;SDS011;40241;52.684;9.758;2023-04-25T02:33:40;7.80;;;1.77;;
5650;SDS011;40241;52.684;9.758;2023-04-25T02:36:05;4.33;;;2.37;;
5650;SDS011;40241;52.684;9.758;2023-04-25T02:38:31;6.60;;;2.77;;
5650;SDS011;40241;52.684;9.758;2023-04-25T02:40:56;6.97;;;2.07;;
5650;SDS011;40241;52.684;9.758;2023-04-25T02:43:22;9.40;;;2.10;;
5650;SDS011;40241;52.684;9.758;2023-04-25T02:45:47;13.67;;;2.30;;
5650;SDS011;40241;52.684;9.758;2023-04-25T02:48:12;8.53;;;1.70;;
5650;SDS011;40241;52.684;9.758;2023-04-25T02:50:38;4.93;;;1.77;;
5650;SDS011;40241;52.684;9.758;2023-04-25T02:53:03;8.30;;;2.40;;
5650;SDS011;40241;52.684;9.758;2023-04-25T02:55:28;6.13;;;1.90;;
5650;SDS011;40241;52.684;9.758;2023-04-25T02:57:54;5.33;;;2.07;;
5650;SDS011;40241;52.684;9.758;2023-04-25T03:00:20;8.70;;;2.53;;
5650;SDS011;40241;52.684;9.758;2023-04-25T03:02:47;5.53;;;1.87;;
5650;SDS011;40241;52.684;9.758;2023-04-25T03:05:12;5.60;;;2.10;;
5650;SDS011;40241;52.684;9.758;2023-04-25T03:07:38;7.10;;;2.47;;
5650;SDS011;40241;52.684;9.758;2023-04-25T03:10:05;2.73;;;1.67;;
5650;SDS011;40241;52.684;9.758;2023-04-25T03:12:31;6.13;;;2.70;;
5650;SDS011;40241;52.684;9.758;2023-04-25T03:14:56;6.53;;;2.30;;
5650;SDS011;40241;52.684;9.758;2023-04-25T03:17:22;10.80;;;2.20;;
5650;SDS011;40241;52.684;9.758;2023-04-25T03:19:47;6.30;;;2.00;;
5650;SDS011;40241;52.684;9.758;2023-04-25T03:22:13;8.30;;;2.40;;
5650;SDS011;40241;52.684;9.758;2023-04-25T03:24:38;8.80;;;2.30;;
5650;SDS011;40241;52.684;9.758;2023-04-25T03:27:04;7.67;;;1.90;;
5650;SDS011;40241;52.684;9.758;2023-04-25T03:29:29;6.70;;;1.97;;
5650;SDS011;40241;52.684;9.758;2023-04-25T03:31:55;7.93;;;2.70;;
5650;SDS011;40241;52.684;9.758;2023-04-25T03:34:20;6.80;;;2.60;;
5650;SDS011;40241;52.684;9.758;2023-04-25T03:36:49;5.77;;;2.10;;
5650;SDS011;40241;52.684;9.758;2023-04-25T03:39:14;6.10;;;1.70;;
5650;SDS011;40241;52.684;9.758;2023-04-25T03:41:40;7.93;;;2.53;;
5650;SDS011;40241;52.684;9.758;2023-04-25T03:44:05;4.53;;;2.27;;
5650;SDS011;40241;52.684;9.758;2023-04-25T03:46:31;3.33;;;1.90;;
5650;SDS011;40241;52.684;9.758;2023-04-25T03:48:56;7.10;;;2.30;;
5650;SDS011;40241;52.684;9.758;2023-04-25T03:51:21;5.10;;;1.73;;
5650;SDS011;40241;52.684;9.758;2023-04-25T03:53:47;8.40;;;2.80;;
5650;SDS011;40241;52.684;9.758;2023-04-25T03:56:12;5.27;;;2.40;;
5650;SDS011;40241;52.684;9.758;2023-04-25T03:58:38;4.13;;;1.90;;
5650;SDS011;40241;52.684;9.758;2023-04-25T04:01:03;8.77;;;1.83;;
5650;SDS011;40241;52.684;9.758;2023-04-25T04:03:32;9.67;;;2.30;;
5650;SDS011;40241;52.684;9.758;2023-04-25T04:06:04;6.97;;;1.93;;
5650;SDS011;40241;52.684;9.758;2023-04-25T04:08:30;8.23;;;2.30;;
5650;SDS011;40241;52.684;9.758;2023-04-25T04:10:59;6.20;;;2.03;;
5650;SDS011;40241;52.684;9.758;2023-04-25T04:13:28;7.60;;;2.30;;
5650;SDS011;40241;52.684;9.758;2023-04-25T04:15:54;6.77;;;1.77;;
5650;SDS011;40241;52.684;9.758;2023-04-25T04:18:20;9.00;;;2.43;;
5650;SDS011;40241;52.684;9.758;2023-04-25T04:20:46;11.60;;;2.77;;
5650;SDS011;40241;52.684;9.758;2023-04-25T04:23:12;4.03;;;1.90;;
5650;SDS011;40241;52.684;9.758;2023-04-25T04:25:37;7.83;;;1.90;;
5650;SDS011;40241;52.684;9.758;2023-04-25T04:28:04;7.80;;;2.40;;
5650;SDS011;40241;52.684;9.758;2023-04-25T04:30:30;7.67;;;2.10;;
5650;SDS011;40241;52.684;9.758;2023-04-25T04:32:56;3.93;;;1.90;;
5650;SDS011;40241;52.684;9.758;2023-04-25T04:35:22;5.40;;;2.30;;
5650;SDS011;40241;52.684;9.758;2023-04-25T04:37:48;11.33;;;2.23;;
5650;SDS011;40241;52.684;9.758;2023-04-25T04:40:14;6.13;;;2.10;;
5650;SDS011;40241;52.684;9.758;2023-04-25T04:42:43;6.70;;;2.17;;
5650;SDS011;40241;52.684;9.758;2023-04-25T04:45:10;5.90;;;2.17;;
5650;SDS011;40241;52.684;9.758;2023-04-25T04:47:35;7.40;;;2.23;;
5650;SDS011;40241;52.684;9.758;2023-04-25T04:50:01;6.40;;;2.20;;
5650;SDS011;40241;52.684;9.758;2023-04-25T04:52:36;7.33;;;2.00;;
5650;SDS011;40241;52.684;9.758;2023-04-25T04:55:03;7.73;;;2.43;;
5650;SDS011;40241;52.684;9.758;2023-04-25T04:57:29;5.83;;;2.07;;
5650;SDS011;40241;52.684;9.758;2023-04-25T04:59:54;4.40;;;2.17;;
5650;SDS011;40241;52.684;9.758;2023-04-25T05:02:20;11.03;;;2.60;;
5650;SDS011;40241;52.684;9.758;2023-04-25T05:04:45;8.70;;;2.47;;
5650;SDS011;40241;52.684;9.758;2023-04-25T05:07:11;6.57;;;2.40;;
5650;SDS011;40241;52.684;9.758;2023-04-25T05:09:37;11.00;;;2.27;;
5650;SDS011;40241;52.684;9.758;2023-04-25T05:12:02;6.33;;;2.40;;
5650;SDS011;40241;52.684;9.758;2023-04-25T05:14:28;7.67;;;2.37;;
5650;SDS011;40241;52.684;9.758;2023-04-25T05:16:53;9.90;;;2.50;;
5650;SDS011;40241;52.684;9.758;2023-04-25T05:19:18;11.10;;;2.20;;
5650;SDS011;40241;52.684;9.758;2023-04-25T05:21:43;7.07;;;2.30;;
5650;SDS011;40241;52.684;9.758;2023-04-25T05:24:09;5.60;;;2.60;;
5650;SDS011;40241;52.684;9.758;2023-04-25T05:26:34;6.67;;;1.80;;
5650;SDS011;40241;52.684;9.758;2023-04-25T05:29:00;11.67;;;2.43;;
5650;SDS011;40241;52.684;9.758;2023-04-25T05:31:25;12.17;;;2.63;;
5650;SDS011;40241;52.684;9.758;2023-04-25T05:33:51;7.40;;;2.27;;
5650;SDS011;40241;52.684;9.758;2023-04-25T05:36:18;7.20;;;2.40;;
5650;SDS011;40241;52.684;9.758;2023-04-25T05:38:44;4.50;;;2.23;;
5650;SDS011;40241;52.684;9.758;2023-04-25T05:41:10;9.33;;;1.93;;
5650;SDS011;40241;52.684;9.758;2023-04-25T05:43:35;10.27;;;2.00;;
5650;SDS011;40241;52.684;9.758;2023-04-25T05:46:00;7.97;;;2.37;;
5650;SDS011;40241;52.684;9.758;2023-04-25T05:48:26;6.13;;;1.97;;
5650;SDS011;40241;52.684;9.758;2023-04-25T05:50:51;3.53;;;2.00;;
5650;SDS011;40241;52.684;9.758;2023-04-25T05:53:17;11.73;;;2.17;;
5650;SDS011;40241;52.684;9.758;2023-04-25T05:55:43;6.83;;;1.70;;
5650;SDS011;40241;52.684;9.758;2023-04-25T05:58:08;11.87;;;2.50;;
5650;SDS011;40241;52.684;9.758;2023-04-25T06:00:33;8.77;;;2.30;;
5650;SDS011;40241;52.684;9.758;2023-04-25T06:02:59;5.97;;;2.00;;
5650;SDS011;40241;52.684;9.758;2023-04-25T06:05:24;13.30;;;2.73;;
5650;SDS011;40241;52.684;9.758;2023-04-25T06:07:50;6.13;;;2.40;;
5650;SDS011;40241;52.684;9.758;2023-04-25T06:10:15;8.50;;;2.40;;
5650;SDS011;40241;52.684;9.758;2023-04-25T06:12:41;6.40;;;1.80;;
5650;SDS011;40241;52.684;9.758;2023-04-25T06:15:06;7.50;;;2.00;;
5650;SDS011;40241;52.684;9.758;2023-04-25T06:17:32;8.13;;;2.53;;
5650;SDS011;40241;52.684;9.758;2023-04-25T06:19:58;6.07;;;1.90;;
5650;SDS011;40241;52.684;9.758;2023-04-25T06:22:23;6.43;;;1.90;;
5650;SDS011;40241;52.684;9.758;2023-04-25T06:24:49;6.43;;;1.93;;
5650;SDS011;40241;52.684;9.758;2023-04-25T06:27:14;5.10;;;1.83;;
5650;SDS011;40241;52.684;9.758;2023-04-25T06:29:40;8.00;;;1.93;;
5650;SDS011;40241;52.684;9.758;2023-04-25T06:32:05;10.77;;;2.20;;
5650;SDS011;40241;52.684;9.758;2023-04-25T06:34:30;3.30;;;1.53;;
5650;SDS011;40241;52.684;9.758;2023-04-25T06:36:56;7.70;;;1.67;;
5650;SDS011;40241;52.684;9.758;2023-04-25T06:39:21;9.03;;;2.00;;
5650;SDS011;40241;52.684;9.758;2023-04-25T06:41:48;4.00;;;1.73;;
5650;SDS011;40241;52.684;9.758;2023-04-25T06:44:14;8.70;;;1.90;;
5650;SDS011;40241;52.684;9.758;2023-04-25T06:46:40;4.30;;;1.50;;
5650;SDS011;40241;52.684;9.758;2023-04-25T06:49:05;8.90;;;2.10;;
5650;SDS011;40241;52.684;9.758;2023-04-25T06:51:30;7.80;;;1.90;;
5650;SDS011;40241;52.684;9.758;2023-04-25T06:53:56;7.63;;;1.70;;
5650;SDS011;40241;52.684;9.758;2023-04-25T06:56:21;4.90;;;2.17;;
5650;SDS011;40241;52.684;9.758;2023-04-25T06:58:48;6.00;;;2.27;;
5650;SDS011;40241;52.684;9.758;2023-04-25T07:01:13;4.60;;;1.73;;
5650;SDS011;40241;52.684;9.758;2023-04-25T07:03:39;10.73;;;1.93;;
5650;SDS011;40241;52.684;9.758;2023-04-25T07:06:04;6.27;;;1.60;;
5650;SDS011;40241;52.684;9.758;2023-04-25T07:08:30;7.50;;;1.70;;
5650;SDS011;40241;52.684;9.758;2023-04-25T07:10:55;9.60;;;1.80;;
5650;SDS011;40241;52.684;9.758;2023-04-25T07:13:20;8.37;;;1.83;;
5650;SDS011;40241;52.684;9.758;2023-04-25T07:15:46;4.50;;;2.10;;
5650;SDS011;40241;52.684;9.758;2023-04-25T07:18:13;6.13;;;2.10;;
5650;SDS011;40241;52.684;9.758;2023-04-25T07:20:38;7.10;;;1.50;;
5650;SDS011;40241;52.684;9.758;2023-04-25T07:23:03;7.00;;;1.90;;
5650;SDS011;40241;52.684;9.758;2023-04-25T07:25:29;11.10;;;2.33;;
5650;SDS011;40241;52.684;9.758;2023-04-25T07:27:55;5.77;;;1.80;;
5650;SDS011;40241;52.684;9.758;2023-04-25T07:30:21;10.27;;;2.43;;
5650;SDS011;40241;52.684;9.758;2023-04-25T07:32:47;4.77;;;1.50;;
5650;SDS011;40241;52.684;9.758;2023-04-25T07:35:13;4.60;;;1.63;;
5650;SDS011;40241;52.684;9.758;2023-04-25T07:37:39;5.97;;;2.17;;
5650;SDS011;40241;52.684;9.758;2023-04-25T07:40:04;3.33;;;1.67;;
5650;SDS011;40241;52.684;9.758;2023-04-25T07:42:30;10.40;;;2.20;;
5650;SDS011;40241;52.684;9.758;2023-04-25T07:44:56;6.10;;;1.87;;
5650;SDS011;40241;52.684;9.758;2023-04-25T07:47:21;6.30;;;2.00;;
5650;SDS011;40241;52.684;9.758;2023-04-25T07:49:46;10.30;;;2.47;;
5650;SDS011;40241;52.684;9.758;2023-04-25T07:52:12;9.20;;;1.70;;
5650;SDS011;40241;52.684;9.758;2023-04-25T07:54:37;8.47;;;1.60;;
5650;SDS011;40241;52.684;9.758;2023-04-25T07:57:03;2.40;;;1.17;;
5650;SDS011;40241;52.684;9.758;2023-04-25T07:59:28;9.40;;;1.63;;
5650;SDS011;40241;52.684;9.758;2023-04-25T08:01:54;7.27;;;1.70;;
5650;SDS011;40241;52.684;9.758;2023-04-25T08:04:20;7.50;;;1.40;;
5650;SDS011;40241;52.684;9.758;2023-04-25T08:06:45;4.47;;;1.40;;
5650;SDS011;40241;52.684;9.758;2023-04-25T08:09:11;2.70;;;1.40;;
5650;SDS011;40241;52.684;9.758;2023-04-25T08:11:36;3.37;;;1.00;;
5650;SDS011;40241;52.684;9.758;2023-04-25T08:14:02;1.93;;;0.80;;
5650;SDS011;40241;52.684;9.758;2023-04-25T08:16:27;5.93;;;1.10;;
5650;SDS011;40241;52.684;9.758;2023-04-25T08:18:53;4.20;;;1.37;;
5650;SDS011;40241;52.684;9.758;2023-04-25T08:21:18;5.07;;;1.50;;
5650;SDS011;40241;52.684;9.758;2023-04-25T08:23:44;4.77;;;1.10;;
5650;SDS011;40241;52.684;9.758;2023-04-25T08:26:09;2.77;;;1.33;;
5650;SDS011;40241;52.684;9.758;2023-04-25T08:28:35;4.10;;;1.37;;
5650;SDS011;40241;52.684;9.758;2023-04-25T08:31:00;4.07;;;1.13;;
5650;SDS011;40241;52.684;9.758;2023-04-25T08:33:25;5.53;;;1.23;;
5650;SDS011;40241;52.684;9.758;2023-04-25T08:35:51;4.83;;;1.50;;
5650;SDS011;40241;52.684;9.758;2023-04-25T08:38:17;5.50;;;1.20;;
5650;SDS011;40241;52.684;9.758;2023-04-25T08:40:43;3.73;;;1.10;;
5650;SDS011;40241;52.684;9.758;2023-04-25T08:43:09;5.37;;;1.60;;
5650;SDS011;40241;52.684;9.758;2023-04-25T08:45:39;4.27;;;1.10;;
5650;SDS011;40241;52.684;9.758;2023-04-25T08:48:07;1.50;;;1.00;;
5650;SDS011;40241;52.684;9.758;2023-04-25T08:50:39;5.77;;;1.60;;
5650;SDS011;40241;52.684;9.758;2023-04-25T08:53:08;4.97;;;1.30;;
5650;SDS011;40241;52.684;9.758;2023-04-25T08:55:36;4.30;;;1.40;;
5650;SDS011;40241;52.684;9.758;2023-04-25T08:58:04;5.63;;;1.80;;
5650;SDS011;40241;52.684;9.758;2023-04-25T09:00:30;5.00;;;0.90;;
5650;SDS011;40241;52.684;9.758;2023-04-25T09:02:56;4.07;;;1.00;;
5650;SDS011;40241;52.684;9.758;2023-04-25T09:05:23;3.20;;;1.23;;
5650;SDS011;40241;52.684;9.758;2023-04-25T09:07:49;1.93;;;1.17;;
5650;SDS011;40241;52.684;9.758;2023-04-25T09:10:14;1.50;;;1.10;;
5650;SDS011;40241;52.684;9.758;2023-04-25T09:12:39;5.50;;;1.47;;
5650;SDS011;40241;52.684;9.758;2023-04-25T09:15:09;1.90;;;1.30;;
5650;SDS011;40241;52.684;9.758;2023-04-25T09:17:36;1.70;;;0.97;;
5650;SDS011;40241;52.684;9.758;2023-04-25T09:20:06;1.63;;;0.87;;
5650;SDS011;40241;52.684;9.758;2023-04-25T09:22:36;1.57;;;0.90;;
5650;SDS011;40241;52.684;9.758;2023-04-25T09:25:09;1.90;;;1.30;;
5650;SDS011;40241;52.684;9.758;2023-04-25T09:27:36;2.03;;;0.90;;
5650;SDS011;40241;52.684;9.758;2023-04-25T09:30:01;2.27;;;1.20;;
5650;SDS011;40241;52.684;9.758;2023-04-25T09:32:27;7.73;;;1.63;;
5650;SDS011;40241;52.684;9.758;2023-04-25T09:34:54;2.37;;;1.10;;
5650;SDS011;40241;52.684;9.758;2023-04-25T09:37:21;3.10;;;0.90;;
5650;SDS011;40241;52.684;9.758;2023-04-25T09:39:53;2.20;;;1.30;;
5650;SDS011;40241;52.684;9.758;2023-04-25T09:42:21;4.60;;;1.00;;
5650;SDS011;40241;52.684;9.758;2023-04-25T09:44:52;1.83;;;0.90;;
5650;SDS011;40241;52.684;9.758;2023-04-25T09:47:18;2.40;;;1.07;;
5650;SDS011;40241;52.684;9.758;2023-04-25T09:49:46;3.97;;;1.50;;
5650;SDS011;40241;52.684;9.758;2023-04-25T09:52:16;7.73;;;1.20;;
5650;SDS011;40241;52.684;9.758;2023-04-25T09:54:44;1.73;;;1.00;;
5650;SDS011;40241;52.684;9.758;2023-04-25T09:57:17;3.50;;;1.33;;
5650;SDS011;40241;52.684;9.758;2023-04-25T09:59:47;2.97;;;1.43;;
5650;SDS011;40241;52.684;9.758;2023-04-25T10:02:19;3.43;;;0.83;;
5650;SDS011;40241;52.684;9.758;2023-04-25T10:04:51;3.13;;;1.07;;
5650;SDS011;40241;52.684;9.758;2023-04-25T10:07:19;1.43;;;0.83;;
5650;SDS011;40241;52.684;9.758;2023-04-25T10:10:00;5.73;;;0.90;;
5650;SDS011;40241;52.684;9.758;2023-04-25T10:12:28;2.50;;;1.60;;
5650;SDS011;40241;52.684;9.758;2023-04-25T10:14:54;2.60;;;0.83;;
5650;SDS011;40241;52.684;9.758;2023-04-25T10:17:20;2.07;;;0.90;;
5650;SDS011;40241;52.684;9.758;2023-04-25T10:19:48;1.90;;;0.80;;
5650;SDS011;40241;52.684;9.758;2023-04-25T10:22:16;3.10;;;0.90;;
5650;SDS011;40241;52.684;9.758;2023-04-25T10:24:46;4.50;;;0.70;;
5650;SDS011;40241;52.684;9.758;2023-04-25T10:27:11;1.60;;;1.23;;
5650;SDS011;40241;52.684;9.758;2023-04-25T10:29:37;2.27;;;0.90;;
5650;SDS011;40241;52.684;9.758;2023-04-25T10:32:03;2.00;;;0.57;;
5650;SDS011;40241;52.684;9.758;2023-04-25T10:34:38;1.50;;;0.60;;
5650;SDS011;40241;52.684;9.758;2023-04-25T10:37:05;4.57;;;1.20;;
5650;SDS011;40241;52.684;9.758;2023-04-25T10:39:34;1.40;;;1.00;;
5650;SDS011;40241;52.684;9.758;2023-04-25T10:41:59;2.20;;;0.60;;
5650;SDS011;40241;52.684;9.758;2023-04-25T10:44:27;1.70;;;0.83;;
5650;SDS011;40241;52.684;9.758;2023-04-25T10:46:57;2.80;;;0.90;;
5650;SDS011;40241;52.684;9.758;2023-04-25T10:49:29;1.60;;;0.90;;
5650;SDS011;40241;52.684;9.758;2023-04-25T10:52:24;4.27;;;0.67;;
5650;SDS011;40241;52.684;9.758;2023-04-25T10:54:55;2.53;;;0.80;;
5650;SDS011;40241;52.684;9.758;2023-04-25T11:00:00;3.60;;;1.10;;
5650;SDS011;40241;52.684;9.758;2023-04-25T11:02:46;2.30;;;0.90;;
5650;SDS011;40241;52.684;9.758;2023-04-25T11:05:18;1.20;;;0.70;;
5650;SDS011;40241;52.684;9.758;2023-04-25T11:07:56;0.90;;;0.60;;
5650;SDS011;40241;52.684;9.758;2023-04-25T11:10:26;0.80;;;0.80;;
5650;SDS011;40241;52.684;9.758;2023-04-25T11:12:52;1.73;;;0.87;;
5650;SDS011;40241;52.684;9.758;2023-04-25T11:15:18;2.53;;;0.93;;
5650;SDS011;40241;52.684;9.758;2023-04-25T11:17:43;2.70;;;0.70;;
5650;SDS011;40241;52.684;9.758;2023-04-25T11:20:11;2.20;;;0.60;;
5650;SDS011;40241;52.684;9.758;2023-04-25T11:22:38;1.47;;;0.80;;
5650;SDS011;40241;52.684;9.758;2023-04-25T11:25:07;2.00;;;1.00;;
5650;SDS011;40241;52.684;9.758;2023-04-25T11:27:37;2.33;;;0.87;;
5650;SDS011;40241;52.684;9.758;2023-04-25T11:30:13;2.70;;;1.00;;
5650;SDS011;40241;52.684;9.758;2023-04-25T11:32:42;4.20;;;0.80;;
5650;SDS011;40241;52.684;9.758;2023-04-25T11:35:11;3.53;;;0.70;;
5650;SDS011;40241;52.684;9.758;2023-04-25T11:37:38;4.80;;;0.90;;
5650;SDS011;40241;52.684;9.758;2023-04-25T11:40:04;3.57;;;0.80;;
5650;SDS011;40241;52.684;9.758;2023-04-25T11:42:31;3.17;;;1.03;;
5650;SDS011;40241;52.684;9.758;2023-04-25T11:44:57;9.17;;;1.27;;
5650;SDS011;40241;52.684;9.758;2023-04-25T11:47:30;4.10;;;0.90;;
5650;SDS011;40241;52.684;9.758;2023-04-25T11:49:57;1.53;;;0.70;;
5650;SDS011;40241;52.684;9.758;2023-04-25T11:52:24;1.70;;;0.60;;
5650;SDS011;40241;52.684;9.758;2023-04-25T11:54:49;1.33;;;0.90;;
5650;SDS011;40241;52.684;9.758;2023-04-25T11:57:18;0.70;;;0.70;;
5650;SDS011;40241;52.684;9.758;2023-04-25T11:59:44;1.30;;;0.63;;
5650;SDS011;40241;52.684;9.758;2023-04-25T12:02:23;1.17;;;0.70;;
5650;SDS011;40241;52.684;9.758;2023-04-25T12:04:49;0.73;;;0.53;;
5650;SDS011;40241;52.684;9.758;2023-04-25T12:07:14;1.67;;;0.50;;
5650;SDS011;40241;52.684;9.758;2023-04-25T12:09:40;1.77;;;0.70;;
5650;SDS011;40241;52.684;9.758;2023-04-25T12:12:09;2.27;;;0.90;;
5650;SDS011;40241;52.684;9.758;2023-04-25T12:14:35;1.00;;;0.60;;
5650;SDS011;40241;52.684;9.758;2023-04-25T12:17:01;2.03;;;0.70;;
5650;SDS011;40241;52.684;9.758;2023-04-25T12:19:32;3.10;;;0.73;;
5650;SDS011;40241;52.684;9.758;2023-04-25T12:22:00;0.80;;;0.60;;
5650;SDS011;40241;52.684;9.758;2023-04-25T12:24:26;0.83;;;0.50;;
5650;SDS011;40241;52.684;9.758;2023-04-25T12:26:58;3.00;;;0.40;;
5650;SDS011;40241;52.684;9.758;2023-04-25T12:29:26;1.33;;;0.60;;
5650;SDS011;40241;52.684;9.758;2023-04-25T12:31:53;1.23;;;0.50;;
5650;SDS011;40241;52.684;9.758;2023-04-25T12:34:20;0.80;;;0.43;;
5650;SDS011;40241;52.684;9.758;2023-04-25T12:36:46;1.67;;;0.60;;
5650;SDS011;40241;52.684;9.758;2023-04-25T12:39:19;1.00;;;0.50;;
5650;SDS011;40241;52.684;9.758;2023-04-25T12:41:45;5.63;;;0.50;;
5650;SDS011;40241;52.684;9.758;2023-04-25T12:44:11;3.10;;;0.60;;
5650;SDS011;40241;52.684;9.758;2023-04-25T12:46:37;0.60;;;0.50;;
5650;SDS011;40241;52.684;9.758;2023-04-25T12:49:03;1.13;;;0.50;;
5650;SDS011;40241;52.684;9.758;2023-04-25T12:51:29;0.97;;;0.50;;
5650;SDS011;40241;52.684;9.758;2023-04-25T12:53:55;1.03;;;0.50;;
5650;SDS011;40241;52.684;9.758;2023-04-25T12:56:20;3.03;;;0.60;;
5650;SDS011;40241;52.684;9.758;2023-04-25T12:58:46;1.30;;;0.50;;
5650;SDS011;40241;52.684;9.758;2023-04-25T13:01:12;1.97;;;0.57;;
5650;SDS011;40241;52.684;9.758;2023-04-25T13:03:38;1.23;;;0.50;;
5650;SDS011;40241;52.684;9.758;2023-04-25T13:06:05;1.90;;;1.40;;
5650;SDS011;40241;52.684;9.758;2023-04-25T13:08:31;1.50;;;0.87;;
5650;SDS011;40241;52.684;9.758;2023-04-25T13:10:57;2.53;;;0.80;;
5650;SDS011;40241;52.684;9.758;2023-04-25T13:13:22;1.73;;;0.70;;
5650;SDS011;40241;52.684;9.758;2023-04-25T13:15:48;1.70;;;0.90;;
5650;SDS011;40241;52.684;9.758;2023-04-25T13:18:13;3.60;;;1.13;;
5650;SDS011;40241;52.684;9.758;2023-04-25T13:20:38;1.33;;;0.80;;
5650;SDS011;40241;52.684;9.758;2023-04-25T13:23:03;1.77;;;0.80;;
5650;SDS011;40241;52.684;9.758;2023-04-25T13:25:29;2.23;;;0.77;;
5650;SDS011;40241;52.684;9.758;2023-04-25T13:27:54;1.97;;;0.67;;
5650;SDS011;40241;52.684;9.758;2023-04-25T13:30:20;4.90;;;0.90;;
5650;SDS011;40241;52.684;9.758;2023-04-25T13:32:45;2.77;;;0.50;;
5650;SDS011;40241;52.684;9.758;2023-04-25T13:35:11;1.83;;;0.57;;
5650;SDS011;40241;52.684;9.758;2023-04-25T13:37:38;3.67;;;0.60;;
5650;SDS011;40241;52.684;9.758;2023-04-25T13:40:05;0.90;;;0.63;;
5650;SDS011;40241;52.684;9.758;2023-04-25T13:42:33;0.60;;;0.60;;
5650;SDS011;40241;52.684;9.758;2023-04-25T13:44:59;1.23;;;0.60;;
5650;SDS011;40241;52.684;9.758;2023-04-25T13:47:25;2.50;;;0.70;;
5650;SDS011;40241;52.684;9.758;2023-04-25T13:49:50;1.50;;;0.90;;
5650;SDS011;40241;52.684;9.758;2023-04-25T13:52:16;3.93;;;1.03;;
5650;SDS011;40241;52.684;9.758;2023-04-25T13:54:41;4.40;;;1.07;;
5650;SDS011;40241;52.684;9.758;2023-04-25T13:57:06;1.53;;;1.10;;
5650;SDS011;40241;52.684;9.758;2023-04-25T13:59:32;0.90;;;0.77;;
5650;SDS011;40241;52.684;9.758;2023-04-25T14:01:58;2.93;;;0.90;;
5650;SDS011;40241;52.684;9.758;2023-04-25T14:04:23;2.50;;;1.00;;
5650;SDS011;40241;52.684;9.758;2023-04-25T14:06:50;4.03;;;0.90;;
5650;SDS011;40241;52.684;9.758;2023-04-25T14:09:16;1.90;;;0.90;;
5650;SDS011;40241;52.684;9.758;2023-04-25T14:11:42;1.03;;;0.70;;
5650;SDS011;40241;52.684;9.758;2023-04-25T14:14:07;2.20;;;0.80;;
5650;SDS011;40241;52.684;9.758;2023-04-25T14:16:33;2.73;;;1.07;;
5650;SDS011;40241;52.684;9.758;2023-04-25T14:18:59;1.10;;;0.60;;
5650;SDS011;40241;52.684;9.758;2023-04-25T14:21:25;3.00;;;1.23;;
5650;SDS011;40241;52.684;9.758;2023-04-25T14:23:51;1.90;;;0.50;;
5650;SDS011;40241;52.684;9.758;2023-04-25T14:26:17;1.83;;;0.60;;
5650;SDS011;40241;52.684;9.758;2023-04-25T14:28:42;1.60;;;0.70;;
5650;SDS011;40241;52.684;9.758;2023-04-25T14:31:08;1.07;;;0.60;;
5650;SDS011;40241;52.684;9.758;2023-04-25T14:33:33;0.70;;;0.50;;
5650;SDS011;40241;52.684;9.758;2023-04-25T14:35:59;5.07;;;0.80;;
5650;SDS011;40241;52.684;9.758;2023-04-25T14:38:24;2.20;;;1.07;;
5650;SDS011;40241;52.684;9.758;2023-04-25T14:40:50;0.93;;;0.80;;
5650;SDS011;40241;52.684;9.758;2023-04-25T14:43:16;0.80;;;0.50;;
5650;SDS011;40241;52.684;9.758;2023-04-25T14:45:41;2.70;;;0.80;;
5650;SDS011;40241;52.684;9.758;2023-04-25T14:48:07;1.20;;;0.70;;
5650;SDS011;40241;52.684;9.758;2023-04-25T14:50:32;1.17;;;0.53;;
5650;SDS011;40241;52.684;9.758;2023-04-25T14:52:58;1.23;;;0.83;;
5650;SDS011;40241;52.684;9.758;2023-04-25T14:55:25;3.20;;;0.73;;
5650;SDS011;40241;52.684;9.758;2023-04-25T14:57:54;2.13;;;0.80;;